Time;durP1;ratioP1;P1;durP2;ratioP2;P2;SDS_P1;SDS_P2;PMS_P1;PMS_P2;Temp;Humidity;BMP_temperature;BMP_pressure;BME280_temperature;BME280_humidity;BME280_pressure;Samples;Min_cycle;Max_cycle;Signal;HPM_P1;HPM_P2
2023/10/07 00:01:01;;;;;;;15.07;3.23;;;;;;;18.43;73.41;101715.81;7391312;19;20019;-64
2023/10/07 00:03:29;;;;;;;11.73;3.22;;;;;;;18.41;73.86;101715.09;7389280;19;20692;-63
2023/10/07 00:06:02;;;;;;;10.85;3.50;;;;;;;18.41;73.74;101726.69;7391003;19;20105;-64
2023/10/07 00:08:34;;;;;;;10.65;3.10;;;;;;;18.39;73.73;101711.72;7388537;19;20024;-64
2023/10/07 00:11:09;;;;;;;13.52;3.60;;;;;;;18.39;74.13;101717.94;7390766;19;20661;-64
2023/10/07 00:13:41;;;;;;;12.02;3.63;;;;;;;18.40;73.67;101714.28;7391099;19;20040;-63
2023/10/07 00:16:11;;;;;;;12.10;3.38;;;;;;;18.42;73.86;101716.78;7390918;19;20590;-63
2023/10/07 00:18:40;;;;;;;10.93;3.50;;;;;;;18.42;73.80;101711.44;7391210;19;20035;-63
2023/10/07 00:21:15;;;;;;;12.85;3.50;;;;;;;18.42;74.02;101714.13;7391138;19;20015;-63
2023/10/07 00:23:42;;;;;;;17.23;4.30;;;;;;;18.45;73.85;101727.25;7388204;19;20022;-64
2023/10/07 00:26:10;;;;;;;10.07;3.50;;;;;;;18.43;73.89;101713.13;7390684;19;20022;-63
2023/10/07 00:28:38;;;;;;;12.68;4.00;;;;;;;18.51;73.80;101726.69;7388918;19;20101;-63
2023/10/07 00:31:12;;;;;;;12.18;3.38;;;;;;;18.50;73.60;101717.78;7390221;19;20019;-63
2023/10/07 00:38:59;;;;;;;12.20;3.40;;;;;;;18.44;74.33;101725.56;7390477;19;20032;-63
2023/10/07 00:41:36;;;;;;;13.38;3.50;;;;;;;18.42;74.17;101714.13;7398719;19;20482;-63
2023/10/07 00:44:23;;;;;;;11.93;3.13;;;;;;;18.41;74.06;101713.28;7394643;19;20025;-64
2023/10/07 00:49:41;;;;;;;12.02;3.40;;;;;;;18.39;74.26;101725.13;7393767;19;20021;-63
2023/10/07 00:52:13;;;;;;;14.55;3.85;;;;;;;18.37;74.45;101722.59;7397052;19;20036;-64
2023/10/07 00:54:50;;;;;;;14.95;3.70;;;;;;;18.41;74.27;101721.31;7396771;19;20043;-63
2023/10/07 00:57:24;;;;;;;13.80;3.83;;;;;;;18.42;74.28;101719.47;7396442;19;20077;-64
2023/10/07 00:59:56;;;;;;;12.65;3.90;;;;;;;18.43;73.99;101713.13;7393851;19;20035;-64
2023/10/07 01:02:34;;;;;;;12.30;3.40;;;;;;;18.45;73.93;101719.19;7395241;19;20022;-64
2023/10/07 01:05:06;;;;;;;12.55;3.75;;;;;;;18.46;73.90;101707.47;7394944;19;20039;-64
2023/10/07 01:07:34;;;;;;;13.65;4.03;;;;;;;18.42;74.02;101709.59;7396083;19;20379;-64
2023/10/07 01:12:39;;;;;;;13.38;3.33;;;;;;;18.43;74.16;101707.75;7396432;19;20022;-64
2023/10/07 01:17:47;;;;;;;12.07;3.50;;;;;;;18.38;74.36;101720.75;7395795;19;20540;-63
2023/10/07 01:20:15;;;;;;;11.85;3.88;;;;;;;18.40;74.22;101724.16;7396320;19;20543;-63
2023/10/07 01:23:01;;;;;;;13.35;4.00;;;;;;;18.40;74.21;101716.94;7394041;19;20051;-63
2023/10/07 01:25:31;;;;;;;11.95;3.38;;;;;;;18.35;74.66;101719.19;7394667;19;20388;-64
2023/10/07 01:28:01;;;;;;;10.55;3.95;;;;;;;18.36;74.24;101712.84;7395377;19;20047;-64
2023/10/07 01:30:29;;;;;;;10.80;3.05;;;;;;;18.39;74.27;101720.63;7395440;19;20018;-64
2023/10/07 01:33:09;;;;;;;15.75;3.80;;;;;;;18.37;74.31;101706.50;7395454;19;20022;-64
2023/10/07 01:35:40;;;;;;;15.05;3.63;;;;;;;18.35;74.56;101715.66;7395634;19;20035;-64
2023/10/07 01:38:07;;;;;;;10.18;3.45;;;;;;;18.33;74.75;101717.66;7394146;19;20047;-64
2023/10/07 01:43:19;;;;;;;14.50;4.20;;;;;;;18.18;76.30;101717.22;7393758;19;20014;-64
2023/10/07 01:45:49;;;;;;;14.55;4.32;;;;;;;18.12;77.11;101715.91;7394793;19;20078;-64
2023/10/07 01:48:17;;;;;;;11.88;3.75;;;;;;;18.08;77.38;101706.44;7393685;19;20047;-64
2023/10/07 01:50:46;;;;;;;13.73;4.45;;;;;;;18.03;78.04;101706.03;7395272;19;20096;-64
2023/10/07 01:53:16;;;;;;;11.85;4.00;;;;;;;17.96;78.49;101700.38;7398220;19;20035;-65
2023/10/07 01:55:45;;;;;;;15.13;4.20;;;;;;;17.92;78.91;101696.28;7394949;19;20032;-64
2023/10/07 01:58:14;;;;;;;13.15;4.05;;;;;;;17.90;79.17;101698.25;7394134;19;20676;-64
2023/10/07 02:00:46;;;;;;;12.85;4.10;;;;;;;17.87;79.08;101686.97;7393631;19;20030;-64
2023/10/07 02:03:22;;;;;;;10.63;3.75;;;;;;;17.81;79.42;101695.53;7393527;19;20011;-64
2023/10/07 02:05:50;;;;;;;11.82;4.85;;;;;;;17.73;80.16;101694.34;7394308;19;20022;-65
2023/10/07 02:08:22;;;;;;;13.40;4.85;;;;;;;17.77;79.80;101692.28;7392764;19;20022;-64
2023/10/07 02:10:58;;;;;;;14.87;4.50;;;;;;;17.73;79.93;101694.34;7393809;19;20019;-64
2023/10/07 02:13:30;;;;;;;12.35;4.45;;;;;;;17.67;80.21;101694.91;7394357;19;20018;-64
2023/10/07 02:15:57;;;;;;;14.15;5.18;;;;;;;17.66;80.41;101700.38;7394499;19;20011;-64
2023/10/07 02:18:27;;;;;;;12.60;5.10;;;;;;;17.68;80.29;101691.25;7391812;19;20486;-64
2023/10/07 02:21:07;;;;;;;12.77;4.70;;;;;;;17.66;80.87;101690.53;7393444;19;20032;-65
2023/10/07 02:23:43;;;;;;;12.60;4.90;;;;;;;17.70;80.48;101691.09;7392744;19;20019;-65
2023/10/07 02:26:21;;;;;;;15.57;5.15;;;;;;;17.68;80.28;101683.22;7391935;19;20399;-65
2023/10/07 02:28:51;;;;;;;15.95;5.38;;;;;;;17.66;80.66;101678.97;7390353;19;20048;-62
2023/10/07 02:31:22;;;;;;;13.05;5.05;;;;;;;17.72;80.19;101676.59;7391706;19;20035;-63
2023/10/07 02:33:57;;;;;;;13.65;4.50;;;;;;;17.67;80.31;101680.69;7392857;19;20018;-64
2023/10/07 02:36:28;;;;;;;12.93;4.75;;;;;;;17.67;80.21;101678.84;7389647;19;20023;-64
2023/10/07 02:39:26;;;;;;;11.07;4.57;;;;;;;17.65;80.44;101680.78;7389977;19;20022;-65
2023/10/07 02:41:56;;;;;;;12.32;4.75;;;;;;;17.62;80.69;101688.25;7392591;19;20015;-64
2023/10/07 02:44:28;;;;;;;12.93;4.47;;;;;;;17.65;80.69;101686.16;7391871;19;20044;-64
2023/10/07 02:46:56;;;;;;;14.15;4.80;;;;;;;17.64;80.78;101694.34;7393130;19;20073;-64
2023/10/07 02:49:25;;;;;;;13.90;5.32;;;;;;;17.57;81.06;101690.50;7390802;19;20025;-65
2023/10/07 02:51:56;;;;;;;16.83;5.35;;;;;;;17.58;81.39;101685.00;7391126;19;20033;-65
2023/10/07 02:54:32;;;;;;;14.55;5.70;;;;;;;17.54;81.61;101694.28;7391731;19;20029;-65
2023/10/07 02:57:21;;;;;;;15.80;5.57;;;;;;;17.49;82.07;101691.19;7394559;19;20038;-65
2023/10/07 02:59:50;;;;;;;14.23;5.20;;;;;;;17.49;82.23;101689.34;7390338;19;20476;-64
2023/10/07 03:04:46;;;;;;;13.07;5.07;;;;;;;17.49;82.39;101699.22;7392976;19;20022;-65
2023/10/07 03:07:14;;;;;;;11.70;4.78;;;;;;;17.51;82.31;101689.19;7391018;19;20022;-65
2023/10/07 03:09:54;;;;;;;13.82;5.30;;;;;;;17.51;82.30;101697.22;7392409;19;20046;-65
2023/10/07 03:12:27;;;;;;;12.50;4.97;;;;;;;17.44;82.93;101688.06;7392712;19;20687;-65
2023/10/07 03:17:37;;;;;;;13.00;5.05;;;;;;;17.25;83.79;101705.75;7395959;19;19930;-64
2023/10/07 03:23:11;;;;;;;12.13;4.65;;;;;;;17.45;83.12;101687.09;7392047;19;20409;-64
2023/10/07 03:26:05;;;;;;;10.55;4.82;;;;;;;17.37;83.48;101697.63;7394901;19;20040;-64
2023/10/07 03:28:36;;;;;;;12.02;4.93;;;;;;;17.41;83.87;101696.38;7388979;19;20052;-64
2023/10/07 03:31:10;;;;;;;12.73;4.88;;;;;;;17.48;83.42;101687.66;7389556;19;20027;-64
2023/10/07 03:33:48;;;;;;;11.93;4.82;;;;;;;17.45;83.73;101685.25;7390157;19;20074;-64
2023/10/07 03:39:09;;;;;;;12.75;4.65;;;;;;;17.45;83.80;101689.75;7388377;19;20019;-64
2023/10/07 03:41:41;;;;;;;11.80;4.80;;;;;;;17.43;83.92;101691.72;7391308;19;20014;-64
2023/10/07 03:44:09;;;;;;;11.32;4.47;;;;;;;17.47;84.30;101690.44;7390544;19;20039;-64
2023/10/07 03:46:38;;;;;;;8.40;4.20;;;;;;;17.51;83.94;101695.44;7395210;19;20021;-64
2023/10/07 03:49:06;;;;;;;9.48;4.43;;;;;;;17.53;84.20;101698.81;7388036;19;20027;-64
2023/10/07 03:51:35;;;;;;;9.73;4.28;;;;;;;17.56;83.92;101703.06;7395565;19;20019;-64
2023/10/07 03:54:11;;;;;;;12.43;4.90;;;;;;;17.54;84.45;101691.63;7393650;19;20029;-64
2023/10/07 03:56:39;;;;;;;11.82;4.53;;;;;;;17.57;84.07;101707.41;7390754;19;20021;-64
2023/10/07 03:59:06;;;;;;;11.32;4.50;;;;;;;17.58;84.44;101694.88;7392793;19;20092;-64
2023/10/07 04:01:39;;;;;;;14.27;5.22;;;;;;;17.56;84.51;101696.84;7393192;19;20039;-64
2023/10/07 04:04:12;;;;;;;14.20;5.03;;;;;;;17.53;84.93;101706.84;7389888;19;20042;-64
2023/10/07 04:06:40;;;;;;;11.65;5.30;;;;;;;17.57;84.87;101710.09;7390806;19;20022;-64
2023/10/07 04:09:09;;;;;;;13.25;4.88;;;;;;;17.63;84.84;101701.53;7393055;19;20035;-63
2023/10/07 04:11:39;;;;;;;14.70;5.43;;;;;;;17.64;85.04;101695.19;7390412;19;20374;-63
2023/10/07 04:14:27;;;;;;;14.82;5.35;;;;;;;17.64;84.81;101702.38;7397742;19;20082;-63
2023/10/07 04:17:11;;;;;;;14.20;5.70;;;;;;;17.64;84.97;101705.06;7398105;19;20035;-63
2023/10/07 04:19:52;;;;;;;14.20;5.60;;;;;;;17.64;85.08;101705.91;7394582;19;20023;-63
2023/10/07 04:22:24;;;;;;;14.38;5.15;;;;;;;17.62;85.04;101697.13;7398179;19;20023;-64
2023/10/07 04:24:52;;;;;;;12.20;5.43;;;;;;;17.62;85.17;101696.28;7395906;19;20014;-61
2023/10/07 04:27:20;;;;;;;13.95;5.10;;;;;;;17.66;85.11;101689.69;7395307;19;20018;-62
2023/10/07 04:29:51;;;;;;;12.57;5.63;;;;;;;17.65;85.26;101691.50;7394442;19;20015;-61
2023/10/07 04:32:21;;;;;;;12.23;5.57;;;;;;;17.66;85.20;101695.03;7397295;19;20019;-61
2023/10/07 04:35:19;;;;;;;13.98;5.07;;;;;;;17.62;85.63;101686.41;7397491;19;20019;-64
2023/10/07 04:37:54;;;;;;;14.82;5.30;;;;;;;17.57;85.65;101698.53;7397243;19;20496;-62
2023/10/07 04:45:49;;;;;;;15.43;6.05;;;;;;;17.71;85.05;101699.00;7397557;19;20023;-61
2023/10/07 04:51:03;;;;;;;13.30;5.55;;;;;;;17.64;85.08;101686.31;7396764;19;20023;-61
2023/10/07 04:53:40;;;;;;;12.95;5.80;;;;;;;17.71;85.07;101690.97;7397098;19;20018;-61
2023/10/07 04:56:20;;;;;;;12.95;5.88;;;;;;;17.76;85.06;101690.59;7396835;19;20359;-61
2023/10/07 04:58:48;;;;;;;14.07;5.85;;;;;;;17.72;85.11;101689.16;7394562;19;20019;-61
2023/10/07 05:01:30;;;;;;;13.90;5.90;;;;;;;17.69;85.13;101687.56;7396224;19;20022;-61
2023/10/07 05:04:03;;;;;;;14.15;6.07;;;;;;;17.69;84.88;101686.72;7395746;19;20033;-61
2023/10/07 05:06:34;;;;;;;;;;;;;;;17.56;85.49;101686.13;7397031;19;20022;-61
2023/10/07 05:09:09;;;;;;;15.40;5.97;;;;;;;17.54;85.91;101686.25;7393969;19;20447;-61
2023/10/07 05:11:49;;;;;;;17.25;6.53;;;;;;;17.62;85.46;101693.63;7394814;19;20086;-61
2023/10/07 05:14:22;;;;;;;15.40;6.55;;;;;;;17.62;85.45;101693.63;7396608;19;20022;-63
2023/10/07 05:16:51;;;;;;;21.35;6.93;;;;;;;17.60;85.38;101691.09;7396330;19;20540;-63
2023/10/07 05:19:21;;;;;;;20.50;6.20;;;;;;;17.65;85.29;101686.16;7392355;19;20093;-62
2023/10/07 05:21:59;;;;;;;14.68;5.97;;;;;;;17.68;84.91;101695.75;7394681;19;20114;-62
2023/10/07 05:24:32;;;;;;;16.73;6.47;;;;;;;17.62;85.32;101690.94;7394053;19;20491;-63
2023/10/07 05:27:01;;;;;;;20.58;6.40;;;;;;;17.61;85.02;101687.41;7394901;19;20022;-62
2023/10/07 05:29:29;;;;;;;16.67;6.35;;;;;;;17.61;85.13;101682.06;7393715;19;20534;-62
2023/10/07 05:31:57;;;;;;;18.85;6.47;;;;;;;17.55;85.17;101690.63;7395575;19;20082;-62
2023/10/07 05:34:28;;;;;;;18.58;6.43;;;;;;;17.61;85.20;101681.22;7395534;19;20018;-62
2023/10/07 05:36:58;;;;;;;16.92;6.57;;;;;;;17.59;85.28;101680.47;7394936;19;20022;-62
2023/10/07 05:39:26;;;;;;;16.00;6.22;;;;;;;17.62;84.93;101686.41;7391800;19;20495;-62
2023/10/07 05:41:54;;;;;;;17.27;6.55;;;;;;;17.60;85.18;101672.34;7395622;19;20530;-62
2023/10/07 05:44:21;;;;;;;17.70;6.47;;;;;;;17.62;85.20;101670.34;7393983;19;20039;-62
2023/10/07 05:46:50;;;;;;;17.83;6.72;;;;;;;17.62;84.90;101673.03;7395115;19;20085;-62
2023/10/07 05:49:18;;;;;;;17.65;6.60;;;;;;;17.60;85.13;101663.44;7392576;19;20018;-62
2023/10/07 05:51:46;;;;;;;20.35;6.60;;;;;;;17.65;84.81;101655.84;7394978;19;20030;-62
2023/10/07 05:54:18;;;;;;;19.95;6.50;;;;;;;17.65;84.54;101670.06;7395250;19;20558;-62
2023/10/07 05:56:47;;;;;;;18.08;6.70;;;;;;;17.58;84.85;101666.25;7396071;19;20032;-62
2023/10/07 05:59:15;;;;;;;15.60;6.30;;;;;;;17.59;84.52;101670.66;7393347;19;20026;-62
2023/10/07 06:01:43;;;;;;;15.95;6.13;;;;;;;17.61;84.75;101678.53;7394588;19;20051;-62
2023/10/07 06:04:11;;;;;;;14.02;5.65;;;;;;;17.61;84.79;101668.66;7394070;19;20019;-62
2023/10/07 06:06:42;;;;;;;14.90;5.85;;;;;;;17.66;84.52;101677.13;7394007;19;20014;-62
2023/10/07 06:09:14;;;;;;;15.63;6.07;;;;;;;17.69;84.55;101665.28;7392489;19;20015;-62
2023/10/07 06:11:42;;;;;;;15.25;6.00;;;;;;;17.68;84.61;101650.22;7394307;19;20026;-62
2023/10/07 06:14:11;;;;;;;14.77;5.80;;;;;;;17.70;84.35;101650.91;7394487;19;20422;-62
2023/10/07 06:16:42;;;;;;;15.45;5.82;;;;;;;17.73;84.67;101642.59;7392214;19;20018;-62
2023/10/07 06:19:13;;;;;;;13.32;5.95;;;;;;;17.72;84.07;101641.75;7392106;19;20501;-62
2023/10/07 06:21:50;;;;;;;15.73;5.93;;;;;;;17.75;84.47;101651.41;7393583;19;20025;-62
2023/10/07 06:24:23;;;;;;;16.83;5.97;;;;;;;17.77;84.12;101660.13;7393454;19;20131;-62
2023/10/07 06:26:54;;;;;;;17.35;5.80;;;;;;;17.76;84.30;101661.97;7392157;19;20014;-62
2023/10/07 06:29:21;;;;;;;16.92;6.65;;;;;;;17.74;84.31;101669.28;7391716;19;20364;-62
2023/10/07 06:31:55;;;;;;;16.98;6.40;;;;;;;17.73;84.42;101669.41;7393194;19;20018;-62
2023/10/07 06:34:26;;;;;;;15.50;5.93;;;;;;;17.76;84.42;101687.91;7393413;19;20048;-62
2023/10/07 06:36:54;;;;;;;14.75;5.82;;;;;;;17.76;84.06;101679.88;7391775;19;20023;-62
2023/10/07 06:39:27;;;;;;;18.00;6.57;;;;;;;17.76;84.19;101683.41;7390739;19;20039;-62
2023/10/07 06:41:58;;;;;;;14.15;6.20;;;;;;;17.76;84.20;101683.41;7393154;19;20036;-62
2023/10/07 06:44:25;;;;;;;16.95;6.25;;;;;;;17.74;84.46;101673.75;7392589;19;20023;-62
2023/10/07 06:46:56;;;;;;;17.58;6.80;;;;;;;17.81;84.13;101679.47;7392834;19;20018;-62
2023/10/07 06:49:24;;;;;;;17.38;7.00;;;;;;;17.81;84.32;101680.31;7390781;19;20022;-62
2023/10/07 06:51:53;;;;;;;18.45;7.40;;;;;;;17.82;84.05;101690.06;7392245;19;20018;-62
2023/10/07 06:54:23;;;;;;;17.30;6.93;;;;;;;17.82;84.41;101691.88;7392662;19;20034;-62
2023/10/07 06:56:54;;;;;;;16.98;6.88;;;;;;;17.84;84.22;101689.91;7392861;19;20031;-62
2023/10/07 06:59:27;;;;;;;15.13;7.30;;;;;;;17.80;84.78;101689.34;7390768;19;20395;-62
2023/10/07 07:01:56;;;;;;;15.90;6.97;;;;;;;17.81;84.65;101691.03;7392983;19;20010;-62
2023/10/07 07:04:25;;;;;;;18.73;7.95;;;;;;;17.83;84.41;101685.53;7391609;19;20018;-62
2023/10/07 07:07:13;;;;;;;19.98;7.72;;;;;;;17.81;84.71;101692.84;7392861;19;20022;-62
2023/10/07 07:09:41;;;;;;;15.30;7.10;;;;;;;17.76;85.09;101698.63;7390793;19;20116;-62
2023/10/07 07:12:11;;;;;;;16.35;7.13;;;;;;;17.80;85.29;101681.28;7392200;19;20031;-62
2023/10/07 07:14:42;;;;;;;15.38;7.45;;;;;;;17.80;85.23;101683.97;7391891;19;20637;-62
2023/10/07 07:22:45;;;;;;;18.02;7.50;;;;;;;17.76;85.64;101699.47;7392067;19;20089;-63
2023/10/07 07:27:58;;;;;;;18.63;7.32;;;;;;;17.82;85.33;101687.38;7391608;19;20520;-63
2023/10/07 07:30:31;;;;;;;17.63;7.57;;;;;;;17.76;85.74;101683.41;7390990;19;20706;-63
2023/10/07 07:33:07;;;;;;;15.05;8.15;;;;;;;17.79;85.65;101676.94;7391356;19;20019;-63
2023/10/07 07:35:40;;;;;;;17.42;7.45;;;;;;;17.77;85.25;101674.38;7390224;19;20021;-63
2023/10/07 07:38:18;;;;;;;16.40;7.47;;;;;;;17.80;85.10;101675.09;7390864;19;20030;-63
2023/10/07 07:40:52;;;;;;;18.35;8.45;;;;;;;17.80;85.04;101675.94;7391107;19;20127;-63
2023/10/07 07:43:20;;;;;;;17.25;8.80;;;;;;;17.85;84.91;101672.84;7391353;19;20014;-64
2023/10/07 07:45:56;;;;;;;14.15;8.43;;;;;;;17.89;84.54;101675.09;7389970;19;20023;-64
2023/10/07 07:48:26;;;;;;;15.02;8.70;;;;;;;17.83;85.15;101683.72;7391970;19;20023;-63
2023/10/07 07:50:54;;;;;;;21.58;8.93;;;;;;;17.89;84.51;101672.41;7399406;19;20753;-63
2023/10/07 07:53:22;;;;;;;17.13;8.82;;;;;;;17.86;85.02;101678.06;7399268;19;20753;-63
2023/10/07 07:55:55;;;;;;;16.13;8.90;;;;;;;17.84;85.67;101676.50;7398165;19;20022;-62
2023/10/07 07:58:24;;;;;;;18.17;9.07;;;;;;;17.85;85.80;101678.19;7396817;19;20022;-62
2023/10/07 08:00:58;;;;;;;19.63;8.82;;;;;;;17.82;86.16;101684.69;7397603;19;20019;-63
2023/10/07 08:03:27;;;;;;;18.17;8.23;;;;;;;17.83;85.75;101680.19;7399669;19;20029;-62
2023/10/07 08:05:54;;;;;;;15.77;8.25;;;;;;;17.87;85.59;101679.75;7396035;19;20021;-64
2023/10/07 08:08:25;;;;;;;20.90;7.57;;;;;;;17.87;85.55;101679.75;7397320;19;20017;-64
2023/10/07 08:10:54;;;;;;;14.63;7.18;;;;;;;17.90;85.43;101681.34;7398201;19;20021;-64
2023/10/07 08:13:24;;;;;;;14.85;6.85;;;;;;;17.89;85.80;101676.94;7397932;19;20014;-62
2023/10/07 08:15:52;;;;;;;16.30;7.18;;;;;;;17.88;85.60;101680.59;7397822;19;20018;-63
2023/10/07 08:18:28;;;;;;;14.85;7.43;;;;;;;17.90;85.58;101675.97;7395060;19;20112;-62
2023/10/07 08:21:06;;;;;;;18.77;7.38;;;;;;;17.97;85.68;101686.00;7398448;19;20048;-62
2023/10/07 08:23:40;;;;;;;14.10;7.00;;;;;;;17.94;85.79;101678.22;7396392;19;20014;-63
2023/10/07 08:26:12;;;;;;;17.92;6.95;;;;;;;17.93;85.75;101684.59;7396057;19;20019;-62
2023/10/07 08:28:47;;;;;;;14.93;6.93;;;;;;;17.93;86.12;101686.38;7396129;19;20026;-64
2023/10/07 08:31:19;;;;;;;18.00;6.88;;;;;;;17.94;85.71;101683.59;7397947;19;20014;-63
2023/10/07 08:34:09;;;;;;;16.73;7.50;;;;;;;17.99;85.48;101684.00;7397563;19;20074;-63
2023/10/07 08:36:37;;;;;;;16.02;7.05;;;;;;;17.97;85.79;101690.50;7397732;19;20018;-63
2023/10/07 08:39:06;;;;;;;18.15;7.38;;;;;;;18.04;85.33;101688.94;7394721;19;20014;-62
2023/10/07 08:41:34;;;;;;;14.98;6.70;;;;;;;18.07;85.37;101683.31;7396875;19;20014;-62
2023/10/07 08:44:29;;;;;;;19.02;7.97;;;;;;;18.06;85.25;101688.84;7397130;19;20024;-62
2023/10/07 08:47:04;;;;;;;18.23;7.32;;;;;;;17.99;85.57;101691.22;7396496;19;20021;-63
2023/10/07 08:49:35;;;;;;;14.82;7.35;;;;;;;17.97;85.70;101688.69;7397434;19;20015;-63
2023/10/07 08:52:10;;;;;;;17.08;7.68;;;;;;;18.02;85.81;101685.59;7397260;19;20023;-63
2023/10/07 08:54:38;;;;;;;15.48;6.82;;;;;;;18.08;85.54;101687.69;7395458;19;20018;-63
2023/10/07 08:57:15;;;;;;;17.38;7.30;;;;;;;18.07;85.63;101687.84;7396368;19;20026;-63
2023/10/07 08:59:49;;;;;;;16.77;7.05;;;;;;;18.07;85.47;101688.69;7392510;19;20704;-63
2023/10/07 09:02:27;;;;;;;13.73;7.00;;;;;;;18.06;85.83;101692.34;7396946;19;20427;-63
2023/10/07 09:05:05;;;;;;;17.05;7.13;;;;;;;17.96;85.82;101680.75;7396184;19;20015;-63
2023/10/07 09:07:33;;;;;;;17.10;7.28;;;;;;;17.98;86.01;101685.00;7396577;19;20033;-63
2023/10/07 09:10:07;;;;;;;14.57;7.10;;;;;;;18.03;85.94;101695.31;7396146;19;20022;-62
2023/10/07 09:12:43;;;;;;;16.92;6.43;;;;;;;18.05;85.62;101688.00;7396482;19;20018;-62
2023/10/07 09:15:19;;;;;;;15.27;6.40;;;;;;;18.09;85.75;101701.97;7394609;19;20019;-64
2023/10/07 09:17:47;;;;;;;13.98;6.38;;;;;;;17.97;86.19;101698.53;7395302;19;20406;-64
2023/10/07 09:20:29;;;;;;;16.33;5.90;;;;;;;17.96;86.09;101699.53;7395783;19;20021;-63
2023/10/07 09:23:06;;;;;;;13.70;5.95;;;;;;;18.00;85.99;101698.25;7395866;19;20044;-63
2023/10/07 09:25:34;;;;;;;14.15;6.13;;;;;;;18.04;85.76;101699.69;7395132;19;20038;-64
2023/10/07 09:28:06;;;;;;;14.88;6.30;;;;;;;18.07;85.54;101703.94;7395082;19;20044;-63
2023/10/07 09:30:35;;;;;;;12.70;5.85;;;;;;;18.09;85.35;101694.78;7393653;19;20014;-63
2023/10/07 09:33:06;;;;;;;14.05;5.82;;;;;;;18.17;85.08;101707.47;7395544;19;20022;-63
2023/10/07 09:35:35;;;;;;;14.85;5.55;;;;;;;18.22;84.60;101705.22;7395770;19;20082;-63
2023/10/07 09:38:08;;;;;;;14.75;5.55;;;;;;;18.27;84.57;101709.16;7394596;19;20093;-63
2023/10/07 09:41:36;;;;;;;15.50;5.60;;;;;;;18.23;84.26;101702.38;7394779;19;20027;-63
2023/10/07 09:43:37;;;;;;;16.52;5.30;;;;;;;18.26;84.46;101703.94;7393650;19;20484;-63
2023/10/07 09:46:07;;;;;;;12.48;4.97;;;;;;;18.30;83.99;101708.03;7391820;19;20047;-64
2023/10/07 09:48:41;;;;;;;14.50;5.05;;;;;;;18.36;84.20;101702.13;7391998;19;20030;-64
2023/10/07 09:51:23;;;;;;;12.80;5.05;;;;;;;18.41;84.17;101699.00;7394834;19;20366;-63
2023/10/07 09:54:06;;;;;;;13.63;5.30;;;;;;;18.51;83.14;101710.59;7394646;19;20015;-63
2023/10/07 09:56:59;;;;;;;12.52;5.20;;;;;;;18.51;83.10;101711.44;7393075;19;20035;-63
2023/10/07 09:59:56;;;;;;;16.45;5.93;;;;;;;18.45;83.44;101701.28;7392561;19;20022;-63
2023/10/07 10:02:51;;;;;;;15.60;5.43;;;;;;;18.60;82.68;101703.53;7394764;19;20488;-64
2023/10/07 10:05:53;;;;;;;13.73;4.63;;;;;;;18.63;82.71;101706.78;7391916;19;20583;-63
2023/10/07 10:08:57;;;;;;;11.63;4.45;;;;;;;18.70;82.42;101710.63;7392864;19;20393;-64
2023/10/07 10:11:31;;;;;;;13.80;4.63;;;;;;;18.65;82.32;101710.16;7392006;19;20014;-64
2023/10/07 10:14:16;;;;;;;;;;;;;;;18.54;82.33;101701.41;7394685;19;20026;-64
2023/10/07 10:16:54;;;;;;;12.68;4.30;;;;;;;18.61;82.43;101695.31;7394549;19;19927;-63
2023/10/07 10:19:47;;;;;;;13.80;4.22;;;;;;;18.81;81.50;101695.34;7390875;19;20018;-63
2023/10/07 10:22:23;;;;;;;14.00;4.27;;;;;;;18.79;81.45;101694.66;7394272;19;20014;-64
2023/10/07 10:24:59;;;;;;;16.20;5.10;;;;;;;18.73;81.50;101704.97;7394408;19;20026;-63
2023/10/07 10:27:27;;;;;;;13.15;4.00;;;;;;;18.71;81.44;101714.16;7394781;19;20082;-64
2023/10/07 10:29:55;;;;;;;14.85;4.22;;;;;;;18.70;81.08;101702.56;7391086;19;20019;-65
2023/10/07 10:32:30;;;;;;;9.77;3.63;;;;;;;18.73;80.77;101715.72;7392761;19;20014;-62
2023/10/07 10:35:01;;;;;;;15.13;4.53;;;;;;;18.72;80.46;101721.22;7394311;19;20014;-64
2023/10/07 10:37:33;;;;;;;14.10;4.20;;;;;;;18.73;80.55;101725.56;7394054;19;20016;-65
2023/10/07 10:40:14;;;;;;;12.55;3.70;;;;;;;18.78;80.01;101719.81;7392365;19;20509;-64
2023/10/07 10:42:43;;;;;;;14.98;4.10;;;;;;;18.70;80.09;101729.41;7393125;19;20014;-63
2023/10/07 10:45:21;;;;;;;10.27;3.80;;;;;;;18.79;80.08;101730.38;7393703;19;20014;-65
2023/10/07 10:47:53;;;;;;;11.98;3.75;;;;;;;18.75;80.06;101742.41;7394255;19;20031;-65
2023/10/07 10:50:23;;;;;;;10.73;3.90;;;;;;;18.75;79.89;101740.56;7391532;19;20085;-65
2023/10/07 10:52:54;;;;;;;10.65;4.00;;;;;;;18.81;79.51;101739.16;7393305;19;20494;-64
2023/10/07 10:55:24;;;;;;;11.20;3.60;;;;;;;18.81;80.08;101744.53;7391142;19;20031;-64
2023/10/07 10:57:53;;;;;;;15.88;4.13;;;;;;;18.80;79.57;101750.00;7392211;19;20074;-65
2023/10/07 11:00:22;;;;;;;12.52;3.80;;;;;;;18.78;79.04;101744.81;7392574;19;20014;-63
2023/10/07 11:02:51;;;;;;;11.45;3.70;;;;;;;18.78;79.23;101757.38;7395551;19;20037;-64
2023/10/07 11:05:22;;;;;;;10.82;3.67;;;;;;;18.73;79.44;101750.59;7395106;19;20011;-63
2023/10/07 11:07:50;;;;;;;11.20;3.40;;;;;;;18.73;79.47;101750.59;7395452;19;20015;-64
2023/10/07 11:10:24;;;;;;;13.35;4.25;;;;;;;18.73;79.29;101752.41;7394800;19;20018;-64
2023/10/07 11:12:56;;;;;;;12.98;3.90;;;;;;;18.76;78.77;101738.72;7395548;19;20023;-64
2023/10/07 11:15:25;;;;;;;11.77;3.60;;;;;;;18.82;78.24;101751.56;7394997;19;20500;-66
2023/10/07 11:18:13;;;;;;;13.75;3.33;;;;;;;18.87;77.91;101748.47;7394495;19;20185;-64
2023/10/07 11:20:41;;;;;;;12.35;3.58;;;;;;;18.79;78.01;101756.38;7394288;19;20415;-64
2023/10/07 11:23:10;;;;;;;14.88;3.85;;;;;;;18.81;77.67;101755.25;7393846;19;20016;-64
2023/10/07 11:25:41;;;;;;;9.90;3.42;;;;;;;18.85;77.64;101755.78;7394662;19;20024;-63
2023/10/07 11:28:09;;;;;;;10.60;3.80;;;;;;;18.87;77.25;101745.78;7394168;19;20022;-65
2023/10/07 11:30:47;;;;;;;13.10;3.50;;;;;;;18.84;77.22;101744.22;7393853;19;20035;-65
2023/10/07 11:33:16;;;;;;;14.55;3.65;;;;;;;18.80;77.42;101744.66;7394167;19;20014;-64
2023/10/07 11:35:57;;;;;;;12.65;3.75;;;;;;;18.89;77.09;101746.50;7394095;19;20037;-64
2023/10/07 11:38:27;;;;;;;15.73;4.20;;;;;;;18.80;77.45;101752.69;7392579;19;20539;-66
2023/10/07 11:40:55;;;;;;;16.45;4.10;;;;;;;18.79;77.82;101753.69;7395000;19;20051;-65
2023/10/07 11:43:23;;;;;;;14.13;3.55;;;;;;;18.81;77.42;101763.31;7394720;19;20048;-66
2023/10/07 11:45:51;;;;;;;11.63;3.42;;;;;;;18.79;77.46;101772.47;7393858;19;20367;-63
2023/10/07 11:48:21;;;;;;;16.88;3.85;;;;;;;18.80;77.48;101756.22;7393100;19;20023;-64
2023/10/07 11:50:49;;;;;;;13.90;4.05;;;;;;;18.83;77.60;101749.75;7395751;19;20414;-66
2023/10/07 11:53:19;;;;;;;14.32;4.13;;;;;;;18.75;77.58;101756.66;7394218;19;20011;-66
2023/10/07 11:55:47;;;;;;;14.02;4.00;;;;;;;18.81;77.43;101749.88;7393951;19;20022;-63
2023/10/07 11:58:17;;;;;;;13.68;4.13;;;;;;;18.81;77.04;101754.38;7393037;19;20030;-64
2023/10/07 12:00:46;;;;;;;14.18;4.18;;;;;;;18.90;76.52;101756.22;7394570;19;20022;-64
2023/10/07 12:03:14;;;;;;;11.32;3.78;;;;;;;18.88;76.42;101747.47;7394955;19;20019;-63
2023/10/07 12:05:43;;;;;;;13.32;4.20;;;;;;;18.91;76.43;101766.81;7393918;19;20100;-63
2023/10/07 12:08:11;;;;;;;13.40;4.28;;;;;;;18.94;76.11;101760.31;7394277;19;20015;-63
2023/10/07 12:10:40;;;;;;;12.95;4.22;;;;;;;18.96;75.96;101753.84;7393839;19;20016;-63
2023/10/07 12:13:11;;;;;;;10.38;3.63;;;;;;;18.95;75.83;101748.59;7395386;19;20036;-63
2023/10/07 12:15:42;;;;;;;12.65;3.78;;;;;;;18.95;76.13;101748.59;7394951;19;20026;-62
2023/10/07 12:18:28;;;;;;;13.50;4.32;;;;;;;18.94;75.78;101758.47;7391980;19;20015;-63
2023/10/07 12:21:00;;;;;;;15.05;3.85;;;;;;;18.93;75.61;101759.47;7393562;19;20029;-63
2023/10/07 12:23:33;;;;;;;14.20;4.13;;;;;;;18.90;75.66;101754.38;7393190;19;20021;-63
2023/10/07 12:26:01;;;;;;;15.65;3.80;;;;;;;18.90;75.49;101751.72;7392667;19;20014;-60